Language: 


Des rapports , des résumés tant et plus, au choix de chacun....


Données Historiques de Météogheer
Journalier Rapport pour Janvier 1, 2018 Unitée:  Métrique    Impériale   Les deux
Suivant Jour »
Journalier Hebdomadaire Mensuel Annuel Sur mesure
  Max: Min: Moyenne:
Température: 8.3 °C 5.6 °C 6.6 °C
Point de rosée: 7.0 °C 5.0 °C 6.1 °C
Humidité: 98% 81% 95%
Vent: 42.5km/h 0.0km/h 14.7km/h
Rafales: 57.3km/h - -
Vent- - SW
Pression: 1005.0 hPa 993.1 hPa -
Pluie: 14.5 mm    
Historical Graphs
 
 
Données tabulaires pour Janvier 1, 2018
Heure Température Point de rosée Pression Vent Vent Rafales Humidité Pluie Taux (Horaire) Conditions
00:00 7.3 °C 6.0 °C 997.9 hPa WSW 28.5 km/h 50.4 km/h 89% 0.8 mm
00:05 7.2 °C 6.0 °C 997.9 hPa WSW 25.3 km/h 40.4 km/h 90% 0.8 mm
00:07 7.2 °C 6.0 °C 997.9 hPa SW 23.8 km/h 40.4 km/h 91% 0.8 mm
00:12 7.3 °C 6.0 °C 997.9 hPa WSW 28.5 km/h 40.4 km/h 91% 0.8 mm
00:14 7.4 °C 6.0 °C 997.9 hPa WSW 22.4 km/h 36.0 km/h 91% 1.3 mm
00:20 7.7 °C 6.0 °C 997.9 hPa WSW 26.2 km/h 48.9 km/h 90% 1.3 mm
00:21 7.7 °C 6.0 °C 997.9 hPa WSW 40.7 km/h 48.9 km/h 90% 1.3 mm
00:26 8.0 °C 6.0 °C 997.9 hPa WSW 40.4 km/h 57.3 km/h 87% 1.3 mm
00:31 8.2 °C 6.0 °C 997.9 hPa WSW 32.8 km/h 57.3 km/h 86% 1.0 mm
00:35 8.3 °C 6.0 °C 997.9 hPa WSW 42.5 km/h 55.0 km/h 85% 0.5 mm
00:41 8.3 °C 6.0 °C 997.9 hPa WSW 35.2 km/h 55.0 km/h 85% 0.5 mm
00:46 8.2 °C 6.0 °C 997.9 hPa WSW 37.0 km/h 51.8 km/h 85% 0.5 mm
00:51 8.3 °C 6.0 °C 997.9 hPa WSW 41.7 km/h 53.3 km/h 85% 0.3 mm
00:52 8.3 °C 6.0 °C 997.9 hPa WSW 21.6 km/h 53.3 km/h 85% 0.3 mm
00:57 8.2 °C 6.0 °C 997.9 hPa WSW 34.3 km/h 53.3 km/h 86% 0.3 mm
00:58 8.2 °C 6.0 °C 997.9 hPa WSW 36.4 km/h 53.3 km/h 86% 0.3 mm
01:00 8.1 °C 6.0 °C 997.9 hPa WSW 39.6 km/h 57.3 km/h 85% 0.3 mm
01:05 8.0 °C 6.0 °C 997.9 hPa WSW 32.0 km/h 57.3 km/h 86% 0.3 mm
01:07 8.0 °C 6.0 °C 997.9 hPa WSW 24.5 km/h 57.3 km/h 86% 0.3 mm
01:12 8.0 °C 6.0 °C 998.9 hPa WSW 42.5 km/h 51.5 km/h 86% 0.3 mm
01:16 7.9 °C 6.0 °C 998.9 hPa WSW 28.5 km/h 52.6 km/h 88% 0.0 mm
01:20 7.9 °C 6.0 °C 998.9 hPa WSW 39.6 km/h 52.6 km/h 89% 0.0 mm
01:25 7.7 °C 6.0 °C 998.9 hPa WSW 31.7 km/h 42.2 km/h 92% 0.0 mm
01:30 7.7 °C 6.0 °C 998.9 hPa WSW 36.4 km/h 42.2 km/h 92% 0.0 mm
01:31 7.7 °C 7.0 °C 998.9 hPa WSW 37.0 km/h 42.2 km/h 93% 0.0 mm
01:36 7.7 °C 7.0 °C 998.9 hPa WSW 30.6 km/h 40.4 km/h 93% 0.0 mm
01:37 7.7 °C 7.0 °C 998.9 hPa WSW 31.4 km/h 40.4 km/h 93% 0.0 mm
01:42 7.7 °C 7.0 °C 998.9 hPa SSW 40.7 km/h 51.2 km/h 93% 0.3 mm
01:45 7.6 °C 7.0 °C 998.9 hPa WSW 30.2 km/h 51.2 km/h 93% 0.3 mm
01:49 7.6 °C 6.0 °C 998.9 hPa WSW 27.4 km/h 51.2 km/h 92% 0.3 mm
01:54 7.6 °C 6.0 °C 998.9 hPa WSW 36.0 km/h 41.7 km/h 92% 0.3 mm
01:59 7.5 °C 6.0 °C 998.9 hPa WSW 28.5 km/h 41.4 km/h 92% 0.3 mm
02:04 7.6 °C 6.0 °C 998.9 hPa WSW 26.2 km/h 42.5 km/h 92% 0.3 mm
02:06 7.6 °C 7.0 °C 998.9 hPa WSW 36.0 km/h 42.5 km/h 93% 0.3 mm
02:11 7.6 °C 7.0 °C 998.9 hPa WSW 36.0 km/h 42.5 km/h 93% 0.3 mm
02:12 7.6 °C 6.0 °C 998.9 hPa WSW 36.0 km/h 42.5 km/h 92% 0.3 mm
02:17 7.6 °C 6.0 °C 998.9 hPa WSW 36.0 km/h 36.0 km/h 92% 0.3 mm
02:18 7.6 °C 6.0 °C 998.9 hPa WSW 36.0 km/h 36.0 km/h 92% 0.3 mm
02:23 7.6 °C 6.0 °C 998.9 hPa WSW 27.7 km/h 36.0 km/h 92% 0.3 mm
02:28 7.4 °C 6.0 °C 999.9 hPa WSW 27.7 km/h 36.0 km/h 93% 0.3 mm
02:29 7.4 °C 6.0 °C 999.9 hPa WSW 27.7 km/h 36.0 km/h 93% 0.3 mm
02:35 7.3 °C 6.0 °C 999.9 hPa WSW 27.7 km/h 27.7 km/h 93% 0.3 mm
02:37 7.3 °C 6.0 °C 999.9 hPa WSW 27.7 km/h 27.7 km/h 94% 0.3 mm
02:40 7.3 °C 6.0 °C 999.9 hPa WSW 17.7 km/h 27.7 km/h 94% 0.0 mm
02:45 7.3 °C 6.0 °C 999.9 hPa WSW 28.5 km/h 28.5 km/h 94% 0.0 mm
02:47 7.3 °C 6.0 °C 999.9 hPa WSW 28.5 km/h 28.5 km/h 94% 0.0 mm
02:50 7.3 °C 6.0 °C 999.9 hPa WSW 28.5 km/h 28.5 km/h 94% 0.0 mm
02:53 7.3 °C 6.0 °C 999.9 hPa WSW 20.6 km/h 28.5 km/h 94% 0.0 mm
02:58 7.3 °C 6.0 °C 1000.9 hPa WSW 31.4 km/h 31.4 km/h 94% 0.0 mm
03:02 7.3 °C 6.0 °C 1000.9 hPa WSW 33.8 km/h 33.8 km/h 94% 0.0 mm
03:07 7.2 °C 6.0 °C 1000.9 hPa WSW 37.0 km/h 37.5 km/h 94% 0.0 mm
03:09 7.2 °C 6.0 °C 1000.9 hPa WSW 37.0 km/h 37.5 km/h 94% 0.0 mm
03:10 7.1 °C 6.0 °C 1000.9 hPa WSW 37.0 km/h 37.5 km/h 94% 0.0 mm
03:14 7.1 °C 6.0 °C 1000.9 hPa SW 21.2 km/h 37.5 km/h 93% 0.0 mm
03:15 7.1 °C 6.0 °C 1000.9 hPa SW 21.2 km/h 37.5 km/h 93% 0.0 mm
03:17 7.1 °C 6.0 °C 1000.9 hPa SSW 23.0 km/h 37.0 km/h 93% 0.0 mm
03:22 7.1 °C 6.0 °C 1000.9 hPa SSW 23.0 km/h 23.0 km/h 93% 0.0 mm
03:25 7.1 °C 6.0 °C 1000.9 hPa SSW 23.0 km/h 23.0 km/h 93% 0.0 mm
03:26 7.1 °C 6.0 °C 1000.9 hPa SSW 23.0 km/h 23.0 km/h 93% 0.0 mm
03:30 7.1 °C 6.0 °C 1000.9 hPa SSW 20.9 km/h 23.0 km/h 93% 0.0 mm
03:35 7.1 °C 6.0 °C 1000.9 hPa SW 16.6 km/h 23.0 km/h 93% 0.0 mm
03:38 7.1 °C 6.0 °C 1000.9 hPa SW 16.6 km/h 23.0 km/h 93% 0.0 mm
03:41 7.1 °C 6.0 °C 999.9 hPa SW 16.6 km/h 20.9 km/h 92% 0.0 mm
03:44 7.1 °C 6.0 °C 999.9 hPa SW 16.6 km/h 16.6 km/h 92% 0.0 mm
03:46 7.1 °C 6.0 °C 999.9 hPa SSW 21.2 km/h 21.2 km/h 92% 0.0 mm
03:47 7.1 °C 6.0 °C 999.9 hPa SSW 21.2 km/h 21.2 km/h 92% 0.0 mm
03:51 7.0 °C 6.0 °C 999.9 hPa SSW 21.2 km/h 21.2 km/h 92% 0.0 mm
03:54 7.0 °C 6.0 °C 999.9 hPa WSW 19.8 km/h 21.2 km/h 91% 0.0 mm
03:57 7.0 °C 6.0 °C 999.9 hPa WSW 19.8 km/h 21.2 km/h 91% 0.0 mm
04:00 7.0 °C 6.0 °C 999.9 hPa WSW 19.8 km/h 21.2 km/h 91% 0.0 mm
04:05 6.9 °C 6.0 °C 999.9 hPa WSW 19.8 km/h 19.8 km/h 92% 0.0 mm
04:10 6.9 °C 6.0 °C 999.9 hPa SSW 13.0 km/h 19.8 km/h 92% 0.0 mm
04:15 6.8 °C 6.0 °C 1000.9 hPa WSW 16.3 km/h 19.8 km/h 92% 0.0 mm
04:19 6.8 °C 6.0 °C 1000.9 hPa WSW 16.3 km/h 17.2 km/h 92% 0.0 mm
04:24 6.8 °C 6.0 °C 1000.9 hPa WSW 16.3 km/h 16.3 km/h 92% 0.0 mm
04:25 6.8 °C 6.0 °C 1000.9 hPa WSW 16.3 km/h 16.3 km/h 92% 0.0 mm
04:30 6.8 °C 6.0 °C 1000.9 hPa SW 14.0 km/h 16.6 km/h 92% 0.0 mm
04:31 6.8 °C 6.0 °C 1000.9 hPa SW 14.0 km/h 16.6 km/h 92% 0.0 mm
04:33 6.8 °C 6.0 °C 1000.9 hPa SW 14.0 km/h 16.6 km/h 92% 0.0 mm
04:38 6.8 °C 6.0 °C 1000.9 hPa SW 16.9 km/h 16.9 km/h 92% 0.0 mm
04:43 6.7 °C 6.0 °C 1000.9 hPa SSW 16.6 km/h 16.9 km/h 92% 0.0 mm
04:44 6.7 °C 6.0 °C 1000.9 hPa SSW 16.6 km/h 16.9 km/h 92% 0.0 mm
04:45 6.7 °C 6.0 °C 1000.9 hPa SSW 16.6 km/h 16.9 km/h 92% 0.0 mm
04:50 6.7 °C 6.0 °C 1000.9 hPa SSW 15.4 km/h 16.9 km/h 92% 0.0 mm
04:52 6.7 °C 6.0 °C 1000.9 hPa WSW 10.5 km/h 16.6 km/h 92% 0.0 mm
04:57 6.6 °C 6.0 °C 1000.9 hPa SSW 12.6 km/h 20.1 km/h 93% 0.0 mm
05:01 6.6 °C 6.0 °C 1000.9 hPa SSW 12.6 km/h 20.1 km/h 93% 0.0 mm
05:06 6.6 °C 6.0 °C 1000.9 hPa SSW 9.7 km/h 20.1 km/h 93% 0.0 mm
05:08 6.6 °C 6.0 °C 1000.9 hPa SSW 9.7 km/h 20.1 km/h 93% 0.0 mm
05:13 6.6 °C 6.0 °C 1000.9 hPa SSW 11.9 km/h 16.9 km/h 93% 0.0 mm
05:14 6.6 °C 6.0 °C 1000.9 hPa SSW 11.9 km/h 16.9 km/h 93% 0.0 mm
05:19 6.6 °C 6.0 °C 1000.9 hPa SSW 11.9 km/h 16.9 km/h 93% 0.0 mm
05:20 6.6 °C 6.0 °C 1000.9 hPa SSW 14.0 km/h 16.9 km/h 93% 0.0 mm
05:21 6.6 °C 6.0 °C 1000.9 hPa SSW 14.0 km/h 16.9 km/h 93% 0.0 mm
05:26 6.5 °C 6.0 °C 1001.9 hPa SSW 16.3 km/h 16.3 km/h 93% 0.0 mm
05:29 6.6 °C 6.0 °C 1001.9 hPa SW 14.0 km/h 16.3 km/h 94% 0.0 mm
05:34 6.6 °C 6.0 °C 1001.9 hPa SSW 18.0 km/h 20.1 km/h 94% 0.0 mm
05:40 6.7 °C 6.0 °C 1001.9 hPa SSW 11.6 km/h 20.1 km/h 94% 0.0 mm
05:45 6.8 °C 6.0 °C 1001.9 hPa South 15.8 km/h 18.0 km/h 94% 0.0 mm
05:48 6.8 °C 6.0 °C 1001.9 hPa South 15.8 km/h 16.9 km/h 94% 0.0 mm
05:53 7.0 °C 6.0 °C 1001.9 hPa SSW 16.6 km/h 16.6 km/h 94% 0.0 mm
05:55 7.0 °C 6.0 °C 1001.9 hPa SSW 16.6 km/h 16.6 km/h 94% 0.0 mm
06:00 7.0 °C 6.0 °C 1001.9 hPa SSW 24.8 km/h 37.8 km/h 93% 0.0 mm
06:01 7.0 °C 6.0 °C 1001.9 hPa SSW 24.8 km/h 37.8 km/h 93% 0.0 mm
06:05 6.7 °C 6.0 °C 1001.9 hPa SSW 24.8 km/h 37.8 km/h 93% 0.3 mm
06:10 6.5 °C 6.0 °C 1001.9 hPa SSW 24.8 km/h 24.8 km/h 94% 0.3 mm
06:12 6.5 °C 6.0 °C 1001.9 hPa SSW 24.8 km/h 24.8 km/h 94% 0.5 mm
06:17 6.4 °C 6.0 °C 1001.9 hPa WSW 20.9 km/h 24.8 km/h 95% 0.5 mm
06:22 6.3 °C 6.0 °C 1001.9 hPa SSW 14.3 km/h 24.8 km/h 95% 0.5 mm
06:23 6.3 °C 6.0 °C 1001.9 hPa SSW 14.3 km/h 24.8 km/h 95% 0.5 mm
06:24 6.3 °C 6.0 °C 1001.9 hPa SW 16.6 km/h 20.9 km/h 96% 0.5 mm
06:29 6.2 °C 6.0 °C 1001.9 hPa SW 16.6 km/h 19.5 km/h 96% 0.5 mm
06:35 6.1 °C 6.0 °C 1001.9 hPa WSW 13.7 km/h 16.6 km/h 96% 0.5 mm
06:40 6.0 °C 6.0 °C 1001.9 hPa WSW 15.8 km/h 16.6 km/h 96% 0.5 mm
06:45 6.0 °C 6.0 °C 1001.9 hPa SW 17.7 km/h 21.9 km/h 96% 0.5 mm
06:47 6.0 °C 6.0 °C 1001.9 hPa SW 18.0 km/h 21.9 km/h 96% 0.5 mm
06:52 6.0 °C 6.0 °C 1001.9 hPa WSW 10.5 km/h 21.9 km/h 97% 0.5 mm
06:56 6.1 °C 6.0 °C 1001.9 hPa WSW 16.6 km/h 23.8 km/h 97% 0.5 mm
07:01 6.1 °C 6.0 °C 1001.9 hPa SSW 13.0 km/h 23.8 km/h 97% 0.5 mm
07:06 6.3 °C 6.0 °C 1001.9 hPa WSW 20.6 km/h 27.0 km/h 97% 0.3 mm
07:10 6.3 °C 6.0 °C 1001.9 hPa WSW 20.6 km/h 27.0 km/h 98% 0.5 mm
07:13 6.3 °C 6.0 °C 1001.9 hPa WSW 20.6 km/h 27.0 km/h 98% 0.3 mm
07:17 6.3 °C 6.0 °C 1001.9 hPa WSW 20.6 km/h 20.6 km/h 98% 0.3 mm
07:20 6.3 °C 6.0 °C 1001.9 hPa WSW 20.6 km/h 20.6 km/h 98% 0.5 mm
07:25 6.3 °C 6.0 °C 1001.9 hPa WSW 20.6 km/h 20.6 km/h 98% 1.0 mm
07:27 6.3 °C 6.0 °C 1002.9 hPa WSW 20.6 km/h 20.6 km/h 98% 1.0 mm
07:32 6.3 °C 6.0 °C 1002.9 hPa WSW 14.0 km/h 20.6 km/h 98% 1.0 mm
07:36 6.2 °C 6.0 °C 1002.9 hPa WSW 14.0 km/h 20.6 km/h 98% 1.0 mm
07:38 6.2 °C 6.0 °C 1002.9 hPa WSW 14.0 km/h 20.6 km/h 98% 1.0 mm
07:43 6.2 °C 6.0 °C 1001.9 hPa WSW 14.0 km/h 14.0 km/h 98% 1.3 mm
07:48 6.1 °C 6.0 °C 1001.9 hPa WSW 14.0 km/h 14.0 km/h 98% 1.5 mm
07:50 6.1 °C 6.0 °C 1001.9 hPa WSW 14.0 km/h 14.0 km/h 98% 1.5 mm
07:55 6.1 °C 6.0 °C 1001.9 hPa WSW 14.0 km/h 14.0 km/h 98% 1.5 mm
08:01 6.1 °C 6.0 °C 1001.9 hPa WSW 14.0 km/h 14.0 km/h 98% 1.5 mm
08:06 6.1 °C 6.0 °C 1001.9 hPa SW 13.7 km/h 13.7 km/h 98% 1.5 mm
08:11 6.0 °C 6.0 °C 1001.9 hPa SSW 13.0 km/h 16.9 km/h 98% 1.3 mm
08:13 6.0 °C 6.0 °C 1001.9 hPa SSW 12.6 km/h 16.9 km/h 98% 1.3 mm
08:18 6.0 °C 6.0 °C 1001.9 hPa WSW 12.6 km/h 19.1 km/h 98% 1.0 mm
08:23 6.0 °C 6.0 °C 1001.9 hPa WSW 13.7 km/h 19.1 km/h 98% 0.5 mm
08:24 5.9 °C 6.0 °C 1001.9 hPa SW 12.2 km/h 19.1 km/h 98% 0.5 mm
08:29 5.9 °C 6.0 °C 1001.9 hPa SSW 20.9 km/h 20.9 km/h 98% 0.5 mm
08:35 5.8 °C 6.0 °C 1001.9 hPa SW 14.0 km/h 20.9 km/h 98% 0.5 mm
08:37 5.8 °C 6.0 °C 1001.9 hPa SSW 13.7 km/h 20.9 km/h 98% 0.5 mm
08:42 5.8 °C 6.0 °C 1001.9 hPa SSW 19.8 km/h 19.8 km/h 98% 0.3 mm
08:43 5.8 °C 6.0 °C 1001.9 hPa SSW 19.8 km/h 19.8 km/h 98% 0.3 mm
08:44 5.8 °C 6.0 °C 1001.9 hPa SSW 19.8 km/h 19.8 km/h 98% 0.3 mm
08:46 5.7 °C 6.0 °C 1001.9 hPa WSW 13.7 km/h 19.8 km/h 98% 0.0 mm
08:51 5.7 °C 6.0 °C 1001.9 hPa SW 11.9 km/h 19.8 km/h 97% 0.0 mm
08:57 5.7 °C 6.0 °C 1001.9 hPa SSW 10.5 km/h 14.0 km/h 97% 0.0 mm
08:58 5.8 °C 6.0 °C 1001.9 hPa SSW 9.3 km/h 14.0 km/h 97% 0.0 mm
08:59 5.8 °C 6.0 °C 1001.9 hPa SSW 9.3 km/h 14.0 km/h 97% 0.0 mm
09:04 5.8 °C 6.0 °C 1001.9 hPa SSW 7.6 km/h 15.8 km/h 97% 0.0 mm
09:09 5.8 °C 6.0 °C 1001.9 hPa SSW 14.0 km/h 15.8 km/h 97% 0.0 mm
09:11 5.9 °C 6.0 °C 1001.9 hPa SSW 12.2 km/h 15.8 km/h 97% 0.0 mm
09:16 5.9 °C 6.0 °C 1001.9 hPa SSW 10.1 km/h 14.0 km/h 97% 0.0 mm
09:21 5.8 °C 6.0 °C 1001.9 hPa SSW 12.2 km/h 14.8 km/h 97% 0.0 mm
09:23 5.8 °C 6.0 °C 1001.9 hPa SSW 13.7 km/h 14.8 km/h 97% 0.0 mm
09:28 5.8 °C 6.0 °C 1001.9 hPa SSW 9.3 km/h 14.0 km/h 97% 0.0 mm
09:31 5.8 °C 6.0 °C 1001.9 hPa SSW 9.3 km/h 14.0 km/h 97% 0.0 mm
09:36 5.8 °C 6.0 °C 1001.9 hPa SSW 15.1 km/h 16.6 km/h 96% 0.0 mm
09:37 5.8 °C 6.0 °C 1001.9 hPa SSW 13.7 km/h 16.6 km/h 96% 0.0 mm
09:39 5.8 °C 6.0 °C 1001.9 hPa South 9.0 km/h 16.6 km/h 96% 0.0 mm
09:42 5.8 °C 6.0 °C 1000.9 hPa South 6.1 km/h 16.6 km/h 96% 0.0 mm
09:47 5.9 °C 6.0 °C 1000.9 hPa South 7.9 km/h 15.1 km/h 96% 0.0 mm
09:48 5.9 °C 6.0 °C 1000.9 hPa South 8.7 km/h 15.1 km/h 96% 0.0 mm
09:53 5.9 °C 6.0 °C 1000.9 hPa SSW 10.1 km/h 13.0 km/h 96% 0.0 mm
09:58 5.9 °C 6.0 °C 1000.9 hPa South 8.7 km/h 17.2 km/h 96% 0.0 mm
10:04 6.0 °C 6.0 °C 1000.9 hPa South 13.7 km/h 17.2 km/h 96% 0.0 mm
10:09 6.0 °C 6.0 °C 1000.9 hPa South 12.2 km/h 16.6 km/h 96% 0.0 mm
10:14 6.0 °C 6.0 °C 999.9 hPa SSW 9.0 km/h 16.6 km/h 96% 0.0 mm
10:16 6.0 °C 6.0 °C 999.9 hPa SW 10.1 km/h 16.6 km/h 95% 0.0 mm
10:20 6.1 °C 6.0 °C 999.9 hPa South 4.7 km/h 16.6 km/h 95% 0.0 mm
10:22 6.1 °C 6.0 °C 999.9 hPa South 6.9 km/h 16.6 km/h 95% 0.0 mm
10:27 6.2 °C 6.0 °C 1000.9 hPa South 8.7 km/h 16.6 km/h 95% 0.0 mm
10:28 6.2 °C 6.0 °C 1000.9 hPa South 13.0 km/h 16.6 km/h 95% 0.0 mm
10:32 6.2 °C 6.0 °C 1000.9 hPa SSW 12.2 km/h 16.6 km/h 95% 0.0 mm
10:37 6.3 °C 6.0 °C 1000.9 hPa South 16.3 km/h 18.0 km/h 95% 0.0 mm
10:42 6.4 °C 6.0 °C 1000.9 hPa South 10.1 km/h 19.1 km/h 95% 0.0 mm
10:47 6.4 °C 6.0 °C 1000.9 hPa SSW 9.3 km/h 19.1 km/h 95% 0.0 mm
10:50 6.5 °C 6.0 °C 1000.9 hPa South 15.1 km/h 19.8 km/h 95% 0.0 mm
10:55 6.6 °C 6.0 °C 1000.9 hPa South 6.9 km/h 19.8 km/h 95% 0.0 mm
11:00 6.6 °C 6.0 °C 1000.9 hPa SSW 12.2 km/h 17.2 km/h 95% 0.0 mm
11:01 6.6 °C 6.0 °C 1000.9 hPa SSW 12.6 km/h 17.2 km/h 95% 0.0 mm
11:05 6.7 °C 6.0 °C 1000.9 hPa SSW 9.0 km/h 19.1 km/h 94% 0.0 mm
11:10 6.8 °C 6.0 °C 1000.9 hPa SSW 14.3 km/h 19.5 km/h 94% 0.0 mm
11:15 6.9 °C 6.0 °C 999.9 hPa SSW 23.8 km/h 23.8 km/h 93% 0.0 mm
11:20 7.0 °C 6.0 °C 999.9 hPa SSW 9.7 km/h 24.5 km/h 92% 0.0 mm
11:21 7.0 °C 6.0 °C 999.9 hPa SSW 20.6 km/h 24.5 km/h 92% 0.0 mm
11:26 7.0 °C 6.0 °C 998.9 hPa South 15.4 km/h 24.5 km/h 92% 0.3 mm
11:28 7.0 °C 6.0 °C 998.9 hPa South 13.7 km/h 21.2 km/h 92% 0.3 mm
11:33 7.0 °C 6.0 °C 998.9 hPa South 10.8 km/h 21.2 km/h 91% 0.3 mm
11:36 7.0 °C 6.0 °C 998.9 hPa SSW 11.6 km/h 20.9 km/h 92% 0.3 mm
11:40 7.0 °C 6.0 °C 998.9 hPa South 11.9 km/h 15.8 km/h 92% 0.3 mm
11:43 7.0 °C 6.0 °C 998.9 hPa SSE 13.0 km/h 16.6 km/h 92% 0.3 mm
11:48 7.0 °C 6.0 °C 998.9 hPa South 20.1 km/h 20.1 km/h 92% 0.3 mm
11:49 7.0 °C 6.0 °C 998.9 hPa South 9.3 km/h 20.1 km/h 92% 0.3 mm
11:50 7.0 °C 6.0 °C 998.9 hPa South 19.1 km/h 20.1 km/h 92% 0.3 mm
11:55 7.0 °C 6.0 °C 998.9 hPa South 16.3 km/h 20.1 km/h 92% 0.3 mm
11:57 7.0 °C 6.0 °C 998.9 hPa SSW 12.6 km/h 20.1 km/h 92% 0.3 mm
12:02 7.0 °C 6.0 °C 998.9 hPa South 16.3 km/h 19.8 km/h 93% 0.3 mm
12:07 7.0 °C 6.0 °C 998.9 hPa South 11.9 km/h 20.6 km/h 93% 0.3 mm
12:09 7.0 °C 6.0 °C 998.9 hPa SSE 14.0 km/h 20.6 km/h 93% 0.3 mm
12:14 7.0 °C 6.0 °C 997.9 hPa SSE 8.7 km/h 27.7 km/h 94% 0.3 mm
12:16 7.0 °C 6.0 °C 997.9 hPa SSW 11.9 km/h 27.7 km/h 94% 0.3 mm
12:17 7.0 °C 6.0 °C 997.9 hPa SSW 16.3 km/h 27.7 km/h 94% 0.3 mm
12:22 7.1 °C 6.0 °C 997.9 hPa SSW 9.3 km/h 27.7 km/h 94% 0.3 mm
12:24 7.1 °C 6.0 °C 997.9 hPa South 15.8 km/h 21.2 km/h 94% 0.3 mm
12:29 7.2 °C 6.0 °C 997.9 hPa SSW 18.3 km/h 21.2 km/h 94% 0.0 mm
12:30 7.2 °C 6.0 °C 997.9 hPa South 13.7 km/h 21.2 km/h 94% 0.0 mm
12:32 7.2 °C 7.0 °C 997.9 hPa SSW 19.8 km/h 27.0 km/h 95% 0.0 mm
12:37 7.2 °C 7.0 °C 997.9 hPa South 6.1 km/h 27.0 km/h 95% 0.0 mm
12:39 7.2 °C 7.0 °C 997.9 hPa SSW 10.1 km/h 27.0 km/h 95% 0.0 mm
12:44 7.2 °C 7.0 °C 996.8 hPa South 10.1 km/h 16.9 km/h 95% 0.0 mm
12:45 7.2 °C 7.0 °C 996.8 hPa South 13.0 km/h 16.9 km/h 95% 0.0 mm
12:50 7.2 °C 7.0 °C 996.8 hPa SSE 9.3 km/h 16.9 km/h 95% 0.0 mm
12:52 7.1 °C 6.0 °C 996.8 hPa SSW 13.0 km/h 16.9 km/h 95% 0.0 mm
12:57 7.1 °C 7.0 °C 996.8 hPa South 7.9 km/h 17.2 km/h 96% 0.0 mm
12:58 7.1 °C 7.0 °C 996.8 hPa South 9.0 km/h 17.2 km/h 96% 0.0 mm
13:03 7.1 °C 7.0 °C 996.8 hPa South 8.7 km/h 18.0 km/h 96% 0.0 mm
13:05 7.1 °C 7.0 °C 996.8 hPa South 11.9 km/h 18.0 km/h 96% 0.3 mm
13:08 7.1 °C 7.0 °C 996.8 hPa SSW 14.0 km/h 20.9 km/h 97% 0.3 mm
13:12 7.1 °C 7.0 °C 996.8 hPa SSW 16.3 km/h 20.9 km/h 97% 0.3 mm
13:17 7.0 °C 7.0 °C 996.8 hPa SSW 12.2 km/h 20.9 km/h 97% 0.5 mm
13:19 7.0 °C 7.0 °C 996.8 hPa South 20.6 km/h 20.6 km/h 97% 0.8 mm
13:24 6.9 °C 7.0 °C 996.8 hPa SSW 15.8 km/h 20.6 km/h 98% 0.8 mm
13:26 6.9 °C 7.0 °C 996.2 hPa SSW 12.2 km/h 20.6 km/h 98% 1.3 mm
13:31 6.7 °C 7.0 °C 996.2 hPa South 12.6 km/h 19.5 km/h 98% 1.5 mm
13:32 6.7 °C 7.0 °C 996.2 hPa South 10.1 km/h 16.9 km/h 98% 1.5 mm
13:37 6.6 °C 7.0 °C 996.2 hPa Calm   16.9 km/h 98% 1.8 mm
13:42 6.5 °C 7.0 °C 995.1 hPa SE 6.1 km/h 13.0 km/h 98% 2.3 mm
13:44 6.5 °C 7.0 °C 995.1 hPa SSE 9.7 km/h 11.6 km/h 98% 2.3 mm
13:47 6.5 °C 7.0 °C 995.1 hPa SE 3.2 km/h 11.1 km/h 98% 2.3 mm
13:49 6.5 °C 7.0 °C 995.1 hPa Calm   11.1 km/h 98% 2.5 mm
13:54 6.5 °C 7.0 °C 995.1 hPa Calm   11.1 km/h 98% 2.5 mm
13:55 6.5 °C 7.0 °C 995.1 hPa SSE 5.8 km/h 9.0 km/h 98% 2.5 mm
14:00 6.4 °C 6.0 °C 995.1 hPa SSE 6.1 km/h 12.6 km/h 98% 2.8 mm
14:01 6.5 °C 7.0 °C 995.1 hPa SSE 6.4 km/h 12.6 km/h 98% 2.8 mm
14:06 6.5 °C 7.0 °C 995.1 hPa SSE 9.0 km/h 12.6 km/h 98% 2.5 mm
14:08 6.5 °C 7.0 °C 995.1 hPa South 12.6 km/h 14.3 km/h 98% 2.8 mm
14:13 6.5 °C 7.0 °C 995.1 hPa SE 10.5 km/h 17.7 km/h 98% 2.5 mm
14:18 6.5 °C 7.0 °C 995.1 hPa Calm   17.7 km/h 98% 2.8 mm
14:23 6.5 °C 7.0 °C 995.1 hPa SSE 1.4 km/h 12.6 km/h 98% 2.5 mm
14:26 6.5 °C 7.0 °C 994.1 hPa SSE 4.7 km/h 12.6 km/h 98% 2.5 mm
14:31 6.5 °C 7.0 °C 994.1 hPa Calm   13.7 km/h 98% 2.5 mm
14:33 6.5 °C 7.0 °C 994.1 hPa South 6.4 km/h 13.7 km/h 98% 2.5 mm
14:34 6.5 °C 7.0 °C 994.1 hPa SSE 6.1 km/h 13.7 km/h 98% 2.5 mm
14:39 6.5 °C 7.0 °C 994.1 hPa Calm   15.4 km/h 98% 2.5 mm
14:40 6.5 °C 7.0 °C 994.1 hPa South 2.1 km/h 15.4 km/h 98% 2.5 mm
14:45 6.5 °C 7.0 °C 994.1 hPa Calm   15.4 km/h 98% 2.8 mm
14:50 6.4 °C 6.0 °C 994.1 hPa South 5.5 km/h 10.8 km/h 98% 2.8 mm
14:55 6.4 °C 6.0 °C 994.1 hPa Calm   10.8 km/h 98% 3.0 mm
15:00 6.4 °C 6.0 °C 994.1 hPa Calm   7.6 km/h 98% 3.3 mm
15:06 6.4 °C 6.0 °C 994.1 hPa South 5.8 km/h 14.0 km/h 98% 3.8 mm
15:11 6.4 °C 6.0 °C 994.1 hPa Calm   14.0 km/h 98% 3.8 mm
15:12 6.4 °C 6.0 °C 994.1 hPa Calm   13.7 km/h 98% 3.8 mm
15:15 6.4 °C 6.0 °C 994.1 hPa Calm   9.0 km/h 98% 4.1 mm
15:19 6.4 °C 6.0 °C 994.1 hPa Calm   5.8 km/h 98% 3.8 mm
15:23 6.3 °C 6.0 °C 994.1 hPa SSW 4.3 km/h 5.8 km/h 98% 4.1 mm
15:29 6.3 °C 6.0 °C 993.1 hPa SSW 5.8 km/h 16.3 km/h 98% 4.1 mm
15:30 6.3 °C 6.0 °C 993.1 hPa South 6.1 km/h 16.3 km/h 98% 4.1 mm
15:35 6.4 °C 6.0 °C 993.1 hPa South 5.5 km/h 10.1 km/h 98% 4.1 mm
15:38 6.4 °C 6.0 °C 993.1 hPa SSW 5.5 km/h 7.9 km/h 98% 3.8 mm
15:40 6.4 °C 6.0 °C 993.1 hPa Calm   8.7 km/h 98% 4.1 mm
15:45 6.4 °C 6.0 °C 994.1 hPa Calm   8.7 km/h 98% 3.8 mm
15:47 6.4 °C 6.0 °C 994.1 hPa SSW 6.9 km/h 8.7 km/h 98% 3.8 mm
15:52 6.3 °C 6.0 °C 994.1 hPa Calm   6.9 km/h 98% 3.3 mm
15:57 6.4 °C 6.0 °C 994.1 hPa WSW 2.6 km/h 6.9 km/h 98% 3.6 mm
16:02 6.4 °C 6.0 °C 994.1 hPa Calm   4.7 km/h 98% 3.3 mm
16:03 6.4 °C 6.0 °C 994.1 hPa Calm   4.7 km/h 98% 3.0 mm
16:07 6.4 °C 6.0 °C 994.1 hPa Calm   3.5 km/h 98% 3.3 mm
16:12 6.4 °C 6.0 °C 994.1 hPa Calm     98% 3.3 mm
16:16 6.4 °C 6.0 °C 994.1 hPa Calm     98% 3.0 mm
16:21 6.4 °C 6.0 °C 994.1 hPa Calm     98% 3.0 mm
16:26 6.3 °C 6.0 °C 994.1 hPa Calm     98% 2.8 mm
16:33 6.3 °C 6.0 °C 994.1 hPa Calm     98% 2.5 mm
16:38 6.3 °C 6.0 °C 994.1 hPa Calm     98% 2.5 mm
16:43 6.3 °C 6.0 °C 994.1 hPa Calm     98% 2.3 mm
16:45 6.3 °C 6.0 °C 994.1 hPa Calm     98% 2.3 mm
16:46 6.3 °C 6.0 °C 994.1 hPa Calm     98% 2.3 mm
16:51 6.3 °C 6.0 °C 994.1 hPa Calm     98% 1.8 mm
16:52 6.3 °C 6.0 °C 994.1 hPa Calm     98% 1.5 mm
16:57 6.3 °C 6.0 °C 995.1 hPa Calm   2.1 km/h 98% 1.3 mm
17:01 6.3 °C 6.0 °C 995.1 hPa Calm   2.1 km/h 98% 1.3 mm
17:06 6.2 °C 6.0 °C 995.1 hPa WSW 5.0 km/h 6.1 km/h 98% 0.8 mm
17:08 6.2 °C 6.0 °C 995.1 hPa WSW 9.0 km/h 9.0 km/h 98% 0.8 mm
17:11 6.3 °C 6.0 °C 995.1 hPa West 4.0 km/h 9.0 km/h 98% 0.5 mm
17:14 6.3 °C 6.0 °C 995.1 hPa NW 11.9 km/h 11.9 km/h 98% 0.8 mm
17:19 6.3 °C 6.0 °C 995.1 hPa WNW 9.7 km/h 16.6 km/h 98% 0.8 mm
17:22 6.3 °C 6.0 °C 995.1 hPa SSW 9.0 km/h 16.6 km/h 98% 0.5 mm
17:27 6.3 °C 6.0 °C 996.2 hPa WNW 11.9 km/h 16.6 km/h 98% 0.5 mm
17:32 6.3 °C 6.0 °C 996.2 hPa North 8.7 km/h 24.5 km/h 98% 0.3 mm
17:37 6.2 °C 6.0 °C 996.2 hPa West 2.6 km/h 24.5 km/h 98% 0.3 mm
17:43 6.1 °C 6.0 °C 996.2 hPa NNW 10.1 km/h 23.3 km/h 98% 0.3 mm
17:47 6.0 °C 6.0 °C 996.2 hPa WSW 5.5 km/h 18.3 km/h 98% 0.3 mm
17:52 5.9 °C 6.0 °C 996.2 hPa West 4.0 km/h 15.8 km/h 98% 0.3 mm
17:57 5.8 °C 6.0 °C 996.8 hPa West 10.5 km/h 16.3 km/h 98% 0.3 mm
18:03 5.8 °C 6.0 °C 996.8 hPa NE 10.1 km/h 15.8 km/h 98% 0.3 mm
18:04 5.8 °C 6.0 °C 996.8 hPa NNW 17.2 km/h 17.2 km/h 98% 0.3 mm
18:09 5.7 °C 6.0 °C 996.8 hPa North 7.2 km/h 17.2 km/h 98% 0.3 mm
18:10 5.7 °C 6.0 °C 996.8 hPa NNW 6.1 km/h 17.2 km/h 98% 0.3 mm
18:15 5.7 °C 6.0 °C 996.8 hPa WNW 5.5 km/h 13.7 km/h 98% 0.0 mm
18:17 5.7 °C 6.0 °C 996.8 hPa WNW 8.7 km/h 10.5 km/h 98% 0.0 mm
18:22 5.7 °C 6.0 °C 996.8 hPa WNW 4.7 km/h 18.3 km/h 98% 0.0 mm
18:23 5.7 °C 6.0 °C 996.8 hPa NNE 6.9 km/h 18.3 km/h 98% 0.0 mm
18:27 5.7 °C 6.0 °C 997.9 hPa North 5.5 km/h 18.3 km/h 98% 0.0 mm
18:28 5.7 °C 6.0 °C 997.9 hPa NNW 9.0 km/h 18.3 km/h 98% 0.0 mm
18:29 5.7 °C 6.0 °C 997.9 hPa NNW 9.0 km/h 18.3 km/h 98% 0.0 mm
18:34 5.6 °C 6.0 °C 997.9 hPa West 1.4 km/h 13.7 km/h 98% 0.0 mm
18:37 5.6 °C 6.0 °C 997.9 hPa WNW 1.4 km/h 13.0 km/h 98% 0.0 mm
18:39 5.7 °C 6.0 °C 997.9 hPa NW 12.6 km/h 13.0 km/h 98% 0.0 mm
18:43 5.7 °C 6.0 °C 997.9 hPa NNW 4.7 km/h 13.0 km/h 98% 0.0 mm
18:48 5.7 °C 6.0 °C 997.9 hPa NNW 11.6 km/h 13.7 km/h 98% 0.0 mm
18:53 5.7 °C 6.0 °C 997.9 hPa NW 7.6 km/h 13.7 km/h 98% 0.0 mm
18:54 5.7 °C 6.0 °C 997.9 hPa NNW 9.7 km/h 12.6 km/h 98% 0.0 mm
18:59 5.7 °C 6.0 °C 998.9 hPa WNW 7.9 km/h 17.7 km/h 98% 0.0 mm
19:02 5.7 °C 6.0 °C 998.9 hPa WNW 10.5 km/h 17.7 km/h 98% 0.0 mm
19:04 5.7 °C 6.0 °C 998.9 hPa West 4.7 km/h 17.7 km/h 98% 0.0 mm
19:07 5.7 °C 6.0 °C 998.9 hPa West 9.3 km/h 17.7 km/h 98% 0.0 mm
19:10 5.7 °C 6.0 °C 998.9 hPa WSW 8.7 km/h 14.0 km/h 98% 0.0 mm
19:13 5.7 °C 6.0 °C 997.9 hPa WNW 10.5 km/h 16.3 km/h 98% 0.0 mm
19:17 5.8 °C 6.0 °C 997.9 hPa West 11.9 km/h 16.3 km/h 98% 0.0 mm
19:20 5.8 °C 6.0 °C 997.9 hPa West 11.9 km/h 16.6 km/h 98% 0.0 mm
19:25 5.8 °C 6.0 °C 997.9 hPa WNW 6.1 km/h 16.6 km/h 98% 0.0 mm
19:29 5.8 °C 6.0 °C 998.9 hPa West 15.1 km/h 15.1 km/h 98% 0.0 mm
19:31 5.9 °C 6.0 °C 998.9 hPa West 7.2 km/h 17.2 km/h 98% 0.0 mm
19:34 5.9 °C 6.0 °C 998.9 hPa West 8.7 km/h 17.2 km/h 98% 0.0 mm
19:37 5.9 °C 6.0 °C 998.9 hPa West 5.8 km/h 17.2 km/h 98% 0.0 mm
19:40 5.9 °C 6.0 °C 998.9 hPa West 8.7 km/h 14.0 km/h 98% 0.0 mm
19:45 5.9 °C 6.0 °C 999.9 hPa West 13.7 km/h 16.3 km/h 98% 0.0 mm
19:48 5.9 °C 6.0 °C 999.9 hPa West 15.8 km/h 17.2 km/h 98% 0.0 mm
19:53 5.9 °C 6.0 °C 999.9 hPa West 14.0 km/h 17.2 km/h 98% 0.0 mm
19:54 6.0 °C 6.0 °C 999.9 hPa West 24.8 km/h 24.8 km/h 98% 0.0 mm
19:58 6.0 °C 6.0 °C 1000.9 hPa West 10.8 km/h 24.8 km/h 98% 0.0 mm
20:01 6.0 °C 6.0 °C 1000.9 hPa WNW 16.3 km/h 24.8 km/h 98% 0.0 mm
20:06 6.0 °C 6.0 °C 1000.9 hPa West 7.9 km/h 17.7 km/h 98% 0.0 mm
20:08 6.0 °C 6.0 °C 1000.9 hPa WNW 12.6 km/h 17.7 km/h 98% 0.0 mm
20:12 6.0 °C 6.0 °C 1000.9 hPa West 13.0 km/h 17.7 km/h 98% 0.0 mm
20:16 6.0 °C 6.0 °C 1000.9 hPa WSW 21.2 km/h 21.2 km/h 98% 0.0 mm
20:18 6.1 °C 6.0 °C 1000.9 hPa West 10.1 km/h 21.2 km/h 98% 0.0 mm
20:22 6.1 °C 6.0 °C 1000.9 hPa WNW 8.7 km/h 21.2 km/h 98% 0.0 mm
20:27 6.2 °C 6.0 °C 1000.9 hPa WSW 17.2 km/h 17.7 km/h 98% 0.0 mm
20:32 6.2 °C 6.0 °C 1000.9 hPa West 13.7 km/h 17.7 km/h 98% 0.0 mm
20:37 6.2 °C 6.0 °C 1000.9 hPa WNW 9.3 km/h 20.6 km/h 98% 0.0 mm
20:38 6.2 °C 6.0 °C 1000.9 hPa West 15.8 km/h 20.6 km/h 98% 0.0 mm
20:43 6.3 °C 6.0 °C 1000.9 hPa WNW 12.2 km/h 18.0 km/h 98% 0.0 mm
20:44 6.3 °C 6.0 °C 1000.9 hPa West 12.6 km/h 18.0 km/h 98% 0.0 mm
20:47 6.3 °C 6.0 °C 1000.9 hPa WSW 8.7 km/h 16.9 km/h 98% 0.0 mm
20:50 6.3 °C 6.0 °C 1000.9 hPa West 10.5 km/h 16.9 km/h 98% 0.0 mm
20:54 6.3 °C 6.0 °C 1000.9 hPa WSW 10.5 km/h 17.2 km/h 98% 0.0 mm
20:59 6.2 °C 6.0 °C 1001.9 hPa West 11.6 km/h 17.2 km/h 98% 0.3 mm
21:02 6.2 °C 6.0 °C 1001.9 hPa West 14.0 km/h 17.2 km/h 98% 0.3 mm
21:04 6.2 °C 6.0 °C 1001.9 hPa WSW 8.7 km/h 15.8 km/h 98% 0.3 mm
21:09 6.1 °C 6.0 °C 1001.9 hPa West 12.6 km/h 15.8 km/h 98% 0.3 mm
21:14 6.1 °C 6.0 °C 1001.9 hPa WSW 10.1 km/h 14.0 km/h 98% 0.3 mm
21:20 6.0 °C 6.0 °C 1001.9 hPa WSW 5.0 km/h 14.0 km/h 98% 0.3 mm
21:25 6.0 °C 6.0 °C 1001.9 hPa WNW 5.8 km/h 15.1 km/h 98% 0.3 mm
21:29 5.9 °C 6.0 °C 1001.9 hPa WSW 9.7 km/h 15.1 km/h 98% 0.3 mm
21:34 5.9 °C 6.0 °C 1001.9 hPa WSW 17.2 km/h 17.2 km/h 98% 0.3 mm
21:40 6.0 °C 6.0 °C 1001.9 hPa West 12.6 km/h 17.7 km/h 98% 0.3 mm
21:41 6.0 °C 6.0 °C 1002.9 hPa West 9.0 km/h 17.7 km/h 98% 0.3 mm
21:46 6.1 °C 6.0 °C 1002.9 hPa West 17.2 km/h 17.7 km/h 98% 0.3 mm
21:47 6.2 °C 6.0 °C 1002.9 hPa West 10.1 km/h 17.7 km/h 98% 0.3 mm
21:50 6.3 °C 6.0 °C 1002.9 hPa WSW 13.0 km/h 18.0 km/h 98% 0.3 mm
21:55 6.4 °C 6.0 °C 1002.9 hPa WSW 13.0 km/h 18.0 km/h 98% 0.3 mm
21:56 6.4 °C 6.0 °C 1002.9 hPa WSW 17.7 km/h 18.0 km/h 98% 0.3 mm
22:01 6.5 °C 7.0 °C 1002.9 hPa West 13.7 km/h 19.5 km/h 98% 0.0 mm
22:06 6.7 °C 7.0 °C 1002.9 hPa WSW 12.6 km/h 24.5 km/h 98% 0.0 mm
22:10 6.8 °C 7.0 °C 1002.9 hPa SSW 24.5 km/h 24.5 km/h 98% 0.0 mm
22:12 6.8 °C 7.0 °C 1002.9 hPa West 20.6 km/h 24.5 km/h 98% 0.0 mm
22:17 7.0 °C 7.0 °C 1002.9 hPa SW 19.8 km/h 24.5 km/h 97% 0.0 mm
22:19 7.0 °C 7.0 °C 1002.9 hPa West 19.1 km/h 24.5 km/h 96% 0.0 mm
22:22 7.1 °C 7.0 °C 1002.9 hPa West 16.3 km/h 22.7 km/h 96% 0.0 mm
22:26 7.2 °C 7.0 °C 1002.9 hPa WSW 16.6 km/h 25.6 km/h 95% 0.0 mm
22:31 7.3 °C 6.0 °C 1002.9 hPa West 16.9 km/h 29.1 km/h 94% 0.0 mm
22:33 7.3 °C 6.0 °C 1002.9 hPa WSW 17.2 km/h 29.1 km/h 93% 0.0 mm
22:38 7.3 °C 6.0 °C 1002.9 hPa West 12.2 km/h 29.1 km/h 92% 0.0 mm
22:39 7.3 °C 6.0 °C 1002.9 hPa West 15.4 km/h 29.1 km/h 92% 0.0 mm
22:44 7.3 °C 6.0 °C 1002.9 hPa WSW 15.8 km/h 21.2 km/h 91% 0.0 mm
22:49 7.3 °C 6.0 °C 1002.9 hPa WNW 20.1 km/h 24.5 km/h 90% 0.0 mm
22:50 7.3 °C 6.0 °C 1002.9 hPa West 10.8 km/h 24.5 km/h 90% 0.0 mm
22:55 7.4 °C 6.0 °C 1002.9 hPa West 19.5 km/h 24.5 km/h 89% 0.0 mm
23:00 7.5 °C 6.0 °C 1002.9 hPa WNW 21.2 km/h 28.5 km/h 88% 0.0 mm
23:03 7.5 °C 6.0 °C 1002.9 hPa West 16.9 km/h 28.5 km/h 88% 0.0 mm
23:08 7.6 °C 6.0 °C 1002.9 hPa West 24.5 km/h 24.5 km/h 87% 0.0 mm
23:13 7.7 °C 6.0 °C 1002.9 hPa WSW 16.6 km/h 31.7 km/h 86% 0.0 mm
23:17 7.7 °C 6.0 °C 1002.9 hPa West 27.4 km/h 31.7 km/h 85% 0.0 mm
23:22 7.8 °C 5.0 °C 1002.9 hPa WSW 20.9 km/h 31.4 km/h 83% 0.0 mm
23:24 7.8 °C 5.0 °C 1002.9 hPa West 16.6 km/h 31.4 km/h 83% 0.0 mm
23:28 7.8 °C 5.0 °C 1003.9 hPa WNW 14.8 km/h 31.4 km/h 83% 0.0 mm
23:32 7.8 °C 5.0 °C 1003.9 hPa West 21.9 km/h 28.0 km/h 83% 0.0 mm
23:37 7.8 °C 5.0 °C 1003.9 hPa West 28.0 km/h 28.0 km/h 83% 0.0 mm
23:38 7.8 °C 5.0 °C 1003.9 hPa West 24.5 km/h 28.0 km/h 83% 0.0 mm
23:40 7.8 °C 5.0 °C 1003.9 hPa West 24.8 km/h 28.0 km/h 83% 0.0 mm
23:45 7.8 °C 5.0 °C 1005.0 hPa West 37.8 km/h 37.8 km/h 83% 0.0 mm
23:50 7.9 °C 5.0 °C 1005.0 hPa West 16.9 km/h 37.8 km/h 81% 0.0 mm
23:51 7.9 °C 5.0 °C 1005.0 hPa SW 16.3 km/h 37.8 km/h 82% 0.0 mm
23:56 7.9 °C 5.0 °C 1005.0 hPa West 14.0 km/h 31.4 km/h 82% 0.0 mm
23:57 7.9 °C 5.0 °C 1005.0 hPa WSW 16.6 km/h 30.9 km/h 82% 0.0 mm
23:59 7.9 °C 5.0 °C 1005.0 hPa West 16.3 km/h 30.9 km/h 82% 0.0 mm
Données Historique de Météo Turbie

Mise a jour : 24/05/2018 23:08:13
Généré par Cumulus 1.9.4 (1099)